sensor_id;sensor_type;location;lat;lon;timestamp;temperature;humidity
5246;DHT22;54412;51.206;6.888;2024-03-25T00:00:42;7.90;99.90
5246;DHT22;54412;51.206;6.888;2024-03-25T00:03:08;7.90;99.90
5246;DHT22;54412;51.206;6.888;2024-03-25T00:05:34;7.80;99.90
5246;DHT22;54412;51.206;6.888;2024-03-25T00:08:00;7.90;99.90
5246;DHT22;54412;51.206;6.888;2024-03-25T00:10:25;7.90;99.90
5246;DHT22;54412;51.206;6.888;2024-03-25T00:12:51;7.90;99.90
5246;DHT22;54412;51.206;6.888;2024-03-25T00:15:21;8.00;99.90
5246;DHT22;54412;51.206;6.888;2024-03-25T00:17:47;8.00;99.90
5246;DHT22;54412;51.206;6.888;2024-03-25T00:20:13;7.90;99.90
5246;DHT22;54412;51.206;6.888;2024-03-25T00:22:40;7.90;99.90
5246;DHT22;54412;51.206;6.888;2024-03-25T00:25:07;8.00;99.90
5246;DHT22;54412;51.206;6.888;2024-03-25T00:27:34;8.00;99.90
5246;DHT22;54412;51.206;6.888;2024-03-25T00:30:00;8.00;99.90
5246;DHT22;54412;51.206;6.888;2024-03-25T00:32:25;8.00;99.90
5246;DHT22;54412;51.206;6.888;2024-03-25T00:34:51;7.90;99.90
5246;DHT22;54412;51.206;6.888;2024-03-25T00:37:17;7.90;99.90
5246;DHT22;54412;51.206;6.888;2024-03-25T00:39:42;8.00;99.90
5246;DHT22;54412;51.206;6.888;2024-03-25T00:42:08;7.90;99.90
5246;DHT22;54412;51.206;6.888;2024-03-25T00:44:34;8.00;99.90
5246;DHT22;54412;51.206;6.888;2024-03-25T00:46:59;7.90;99.90
5246;DHT22;54412;51.206;6.888;2024-03-25T00:49:25;7.90;99.90
5246;DHT22;54412;51.206;6.888;2024-03-25T00:51:51;7.90;99.90
5246;DHT22;54412;51.206;6.888;2024-03-25T00:54:17;7.90;99.90
5246;DHT22;54412;51.206;6.888;2024-03-25T00:56:43;7.90;99.90
5246;DHT22;54412;51.206;6.888;2024-03-25T00:59:09;7.90;99.90
5246;DHT22;54412;51.206;6.888;2024-03-25T01:01:35;7.90;99.90
5246;DHT22;54412;51.206;6.888;2024-03-25T01:04:03;7.90;99.90
5246;DHT22;54412;51.206;6.888;2024-03-25T01:06:29;7.70;99.90
5246;DHT22;54412;51.206;6.888;2024-03-25T01:08:55;7.70;99.90
5246;DHT22;54412;51.206;6.888;2024-03-25T01:11:21;7.90;99.90
5246;DHT22;54412;51.206;6.888;2024-03-25T01:13:47;7.90;99.90
5246;DHT22;54412;51.206;6.888;2024-03-25T01:16:13;7.80;99.90
5246;DHT22;54412;51.206;6.888;2024-03-25T01:18:39;7.70;99.90
5246;DHT22;54412;51.206;6.888;2024-03-25T01:21:05;7.80;99.90
5246;DHT22;54412;51.206;6.888;2024-03-25T01:23:31;7.80;99.90
5246;DHT22;54412;51.206;6.888;2024-03-25T01:25:57;7.80;99.90
5246;DHT22;54412;51.206;6.888;2024-03-25T01:28:22;7.70;99.90
5246;DHT22;54412;51.206;6.888;2024-03-25T01:30:48;7.60;99.90
5246;DHT22;54412;51.206;6.888;2024-03-25T01:33:14;7.60;99.90
5246;DHT22;54412;51.206;6.888;2024-03-25T01:35:40;7.50;99.90
5246;DHT22;54412;51.206;6.888;2024-03-25T01:38:06;7.50;99.90
5246;DHT22;54412;51.206;6.888;2024-03-25T01:40:32;7.40;99.90
5246;DHT22;54412;51.206;6.888;2024-03-25T01:43:03;7.30;99.90
5246;DHT22;54412;51.206;6.888;2024-03-25T01:45:31;7.50;99.90
5246;DHT22;54412;51.206;6.888;2024-03-25T01:48:02;7.40;99.90
5246;DHT22;54412;51.206;6.888;2024-03-25T01:50:35;7.40;99.90
5246;DHT22;54412;51.206;6.888;2024-03-25T01:53:03;7.40;99.90
5246;DHT22;54412;51.206;6.888;2024-03-25T01:55:31;7.40;99.90
5246;DHT22;54412;51.206;6.888;2024-03-25T01:58:00;7.30;99.90
5246;DHT22;54412;51.206;6.888;2024-03-25T02:00:26;7.30;99.90
5246;DHT22;54412;51.206;6.888;2024-03-25T02:02:53;7.30;99.90
5246;DHT22;54412;51.206;6.888;2024-03-25T02:05:20;7.30;99.90
5246;DHT22;54412;51.206;6.888;2024-03-25T02:07:46;7.30;99.90
5246;DHT22;54412;51.206;6.888;2024-03-25T02:10:13;7.30;99.90
5246;DHT22;54412;51.206;6.888;2024-03-25T02:12:43;7.30;99.90
5246;DHT22;54412;51.206;6.888;2024-03-25T02:15:11;7.30;99.90
5246;DHT22;54412;51.206;6.888;2024-03-25T02:17:41;7.30;99.90
5246;DHT22;54412;51.206;6.888;2024-03-25T02:20:07;7.20;99.90
5246;DHT22;54412;51.206;6.888;2024-03-25T02:22:34;7.30;99.90
5246;DHT22;54412;51.206;6.888;2024-03-25T02:25:08;7.20;99.90
5246;DHT22;54412;51.206;6.888;2024-03-25T02:27:36;7.20;99.90
5246;DHT22;54412;51.206;6.888;2024-03-25T02:30:06;7.10;99.90
5246;DHT22;54412;51.206;6.888;2024-03-25T02:32:36;7.10;99.90
5246;DHT22;54412;51.206;6.888;2024-03-25T02:35:04;7.10;99.90
5246;DHT22;54412;51.206;6.888;2024-03-25T02:37:33;7.10;99.90
5246;DHT22;54412;51.206;6.888;2024-03-25T02:39:59;7.20;99.90
5246;DHT22;54412;51.206;6.888;2024-03-25T02:42:28;7.20;99.90
5246;DHT22;54412;51.206;6.888;2024-03-25T02:44:55;7.20;99.90
5246;DHT22;54412;51.206;6.888;2024-03-25T02:47:22;7.10;99.90
5246;DHT22;54412;51.206;6.888;2024-03-25T02:49:47;7.10;99.90
5246;DHT22;54412;51.206;6.888;2024-03-25T02:52:14;7.00;99.90
5246;DHT22;54412;51.206;6.888;2024-03-25T02:54:39;6.90;99.90
5246;DHT22;54412;51.206;6.888;2024-03-25T02:57:05;6.90;99.90
5246;DHT22;54412;51.206;6.888;2024-03-25T02:59:31;6.90;99.90
5246;DHT22;54412;51.206;6.888;2024-03-25T03:01:56;6.80;99.90
5246;DHT22;54412;51.206;6.888;2024-03-25T03:04:22;6.80;99.90
5246;DHT22;54412;51.206;6.888;2024-03-25T03:06:48;6.90;99.90
5246;DHT22;54412;51.206;6.888;2024-03-25T03:09:13;6.90;99.90
5246;DHT22;54412;51.206;6.888;2024-03-25T03:11:39;6.90;99.90
5246;DHT22;54412;51.206;6.888;2024-03-25T03:14:05;6.90;99.90
5246;DHT22;54412;51.206;6.888;2024-03-25T03:16:31;6.90;99.90
5246;DHT22;54412;51.206;6.888;2024-03-25T03:18:57;6.90;99.90
5246;DHT22;54412;51.206;6.888;2024-03-25T03:21:22;6.90;99.90
5246;DHT22;54412;51.206;6.888;2024-03-25T03:23:48;6.90;99.90
5246;DHT22;54412;51.206;6.888;2024-03-25T03:26:13;6.90;99.90
5246;DHT22;54412;51.206;6.888;2024-03-25T03:28:42;6.90;99.90
5246;DHT22;54412;51.206;6.888;2024-03-25T03:31:08;6.90;99.90
5246;DHT22;54412;51.206;6.888;2024-03-25T03:33:33;6.90;99.90
5246;DHT22;54412;51.206;6.888;2024-03-25T03:35:59;6.90;99.90
5246;DHT22;54412;51.206;6.888;2024-03-25T03:38:25;6.80;99.90
5246;DHT22;54412;51.206;6.888;2024-03-25T03:40:58;6.80;99.90
5246;DHT22;54412;51.206;6.888;2024-03-25T03:43:28;6.80;99.90
5246;DHT22;54412;51.206;6.888;2024-03-25T03:45:53;6.70;99.90
5246;DHT22;54412;51.206;6.888;2024-03-25T03:48:19;6.70;99.90
5246;DHT22;54412;51.206;6.888;2024-03-25T03:50:45;6.70;99.90
5246;DHT22;54412;51.206;6.888;2024-03-25T03:53:11;6.70;99.90
5246;DHT22;54412;51.206;6.888;2024-03-25T03:55:38;6.70;99.90
5246;DHT22;54412;51.206;6.888;2024-03-25T03:58:03;6.70;99.90
5246;DHT22;54412;51.206;6.888;2024-03-25T04:00:29;6.70;99.90
5246;DHT22;54412;51.206;6.888;2024-03-25T04:02:58;6.60;99.90
5246;DHT22;54412;51.206;6.888;2024-03-25T04:05:24;6.60;99.90
5246;DHT22;54412;51.206;6.888;2024-03-25T04:07:53;6.50;99.90
5246;DHT22;54412;51.206;6.888;2024-03-25T04:10:18;6.40;99.90
5246;DHT22;54412;51.206;6.888;2024-03-25T04:12:44;6.30;99.90
5246;DHT22;54412;51.206;6.888;2024-03-25T04:15:10;6.20;99.90
5246;DHT22;54412;51.206;6.888;2024-03-25T04:17:43;6.20;99.90
5246;DHT22;54412;51.206;6.888;2024-03-25T04:20:11;6.20;99.90
5246;DHT22;54412;51.206;6.888;2024-03-25T04:22:41;6.20;99.90
5246;DHT22;54412;51.206;6.888;2024-03-25T04:25:08;6.30;99.90
5246;DHT22;54412;51.206;6.888;2024-03-25T04:27:46;6.30;99.90
5246;DHT22;54412;51.206;6.888;2024-03-25T04:30:12;6.40;99.90
5246;DHT22;54412;51.206;6.888;2024-03-25T04:32:38;6.30;99.90
5246;DHT22;54412;51.206;6.888;2024-03-25T04:35:07;6.40;99.90
5246;DHT22;54412;51.206;6.888;2024-03-25T04:37:34;6.40;99.90
5246;DHT22;54412;51.206;6.888;2024-03-25T04:40:01;6.30;99.90
5246;DHT22;54412;51.206;6.888;2024-03-25T04:42:28;6.30;99.90
5246;DHT22;54412;51.206;6.888;2024-03-25T04:44:54;6.40;99.90
5246;DHT22;54412;51.206;6.888;2024-03-25T04:47:20;6.40;99.90
5246;DHT22;54412;51.206;6.888;2024-03-25T04:49:46;6.50;99.90
5246;DHT22;54412;51.206;6.888;2024-03-25T04:52:12;6.50;99.90
5246;DHT22;54412;51.206;6.888;2024-03-25T04:54:39;6.50;99.90
5246;DHT22;54412;51.206;6.888;2024-03-25T04:57:05;6.50;99.90
5246;DHT22;54412;51.206;6.888;2024-03-25T04:59:31;6.50;99.90
5246;DHT22;54412;51.206;6.888;2024-03-25T05:01:57;6.50;99.90
5246;DHT22;54412;51.206;6.888;2024-03-25T05:04:23;6.40;99.90
5246;DHT22;54412;51.206;6.888;2024-03-25T05:06:50;6.50;99.90
5246;DHT22;54412;51.206;6.888;2024-03-25T05:09:15;6.60;99.90
5246;DHT22;54412;51.206;6.888;2024-03-25T05:11:42;6.60;99.90
5246;DHT22;54412;51.206;6.888;2024-03-25T05:14:07;6.60;99.90
5246;DHT22;54412;51.206;6.888;2024-03-25T05:16:33;6.60;99.90
5246;DHT22;54412;51.206;6.888;2024-03-25T05:18:59;6.60;99.90
5246;DHT22;54412;51.206;6.888;2024-03-25T05:21:24;6.60;99.90
5246;DHT22;54412;51.206;6.888;2024-03-25T05:23:50;6.60;99.90
5246;DHT22;54412;51.206;6.888;2024-03-25T05:26:16;6.50;99.90
5246;DHT22;54412;51.206;6.888;2024-03-25T05:28:41;6.50;99.90
5246;DHT22;54412;51.206;6.888;2024-03-25T05:31:08;6.50;99.90
5246;DHT22;54412;51.206;6.888;2024-03-25T05:33:34;6.60;99.90
5246;DHT22;54412;51.206;6.888;2024-03-25T05:36:01;6.70;99.90
5246;DHT22;54412;51.206;6.888;2024-03-25T05:38:27;6.70;99.90
5246;DHT22;54412;51.206;6.888;2024-03-25T05:40:54;6.80;99.90
5246;DHT22;54412;51.206;6.888;2024-03-25T05:43:20;6.80;99.90
5246;DHT22;54412;51.206;6.888;2024-03-25T05:45:56;6.90;99.90
5246;DHT22;54412;51.206;6.888;2024-03-25T05:48:22;6.90;99.90
5246;DHT22;54412;51.206;6.888;2024-03-25T05:53:40;7.00;99.90
5246;DHT22;54412;51.206;6.888;2024-03-25T05:56:05;7.00;99.90
5246;DHT22;54412;51.206;6.888;2024-03-25T05:58:31;6.80;99.90
5246;DHT22;54412;51.206;6.888;2024-03-25T06:00:57;6.80;99.90
5246;DHT22;54412;51.206;6.888;2024-03-25T06:03:23;6.70;99.90
5246;DHT22;54412;51.206;6.888;2024-03-25T06:05:49;6.80;99.90
5246;DHT22;54412;51.206;6.888;2024-03-25T06:08:15;6.80;99.90
5246;DHT22;54412;51.206;6.888;2024-03-25T06:10:49;6.90;99.90
5246;DHT22;54412;51.206;6.888;2024-03-25T06:13:19;6.90;99.90
5246;DHT22;54412;51.206;6.888;2024-03-25T06:15:45;6.90;99.90
5246;DHT22;54412;51.206;6.888;2024-03-25T06:18:11;6.80;99.90
5246;DHT22;54412;51.206;6.888;2024-03-25T06:20:37;6.80;99.90
5246;DHT22;54412;51.206;6.888;2024-03-25T06:23:03;6.70;99.90
5246;DHT22;54412;51.206;6.888;2024-03-25T06:25:30;6.60;99.90
5246;DHT22;54412;51.206;6.888;2024-03-25T06:27:56;6.70;99.90
5246;DHT22;54412;51.206;6.888;2024-03-25T06:30:22;6.70;99.90
5246;DHT22;54412;51.206;6.888;2024-03-25T06:33:07;6.60;99.90
5246;DHT22;54412;51.206;6.888;2024-03-25T06:35:51;6.70;99.90
5246;DHT22;54412;51.206;6.888;2024-03-25T06:38:17;6.70;99.90
5246;DHT22;54412;51.206;6.888;2024-03-25T06:40:45;6.90;99.90
5246;DHT22;54412;51.206;6.888;2024-03-25T06:43:11;6.90;99.90
5246;DHT22;54412;51.206;6.888;2024-03-25T06:45:37;6.90;99.90
5246;DHT22;54412;51.206;6.888;2024-03-25T06:48:03;7.10;99.90
5246;DHT22;54412;51.206;6.888;2024-03-25T06:50:29;7.10;99.90
5246;DHT22;54412;51.206;6.888;2024-03-25T06:52:55;7.00;99.90
5246;DHT22;54412;51.206;6.888;2024-03-25T06:55:20;7.10;99.90
5246;DHT22;54412;51.206;6.888;2024-03-25T06:57:48;7.30;99.90
5246;DHT22;54412;51.206;6.888;2024-03-25T07:00:14;7.40;99.90
5246;DHT22;54412;51.206;6.888;2024-03-25T07:02:40;7.60;99.90
5246;DHT22;54412;51.206;6.888;2024-03-25T07:05:07;7.40;99.90
5246;DHT22;54412;51.206;6.888;2024-03-25T07:07:33;7.40;99.90
5246;DHT22;54412;51.206;6.888;2024-03-25T07:10:00;7.50;99.90
5246;DHT22;54412;51.206;6.888;2024-03-25T07:12:26;7.60;99.90
5246;DHT22;54412;51.206;6.888;2024-03-25T07:14:52;7.80;99.90
5246;DHT22;54412;51.206;6.888;2024-03-25T07:17:17;7.90;99.90
5246;DHT22;54412;51.206;6.888;2024-03-25T07:19:43;8.00;99.90
5246;DHT22;54412;51.206;6.888;2024-03-25T07:22:10;8.10;99.90
5246;DHT22;54412;51.206;6.888;2024-03-25T07:24:36;8.30;99.90
5246;DHT22;54412;51.206;6.888;2024-03-25T07:27:02;8.30;99.90
5246;DHT22;54412;51.206;6.888;2024-03-25T07:29:27;8.20;99.90
5246;DHT22;54412;51.206;6.888;2024-03-25T07:31:53;8.30;99.90
5246;DHT22;54412;51.206;6.888;2024-03-25T07:34:19;8.40;99.90
5246;DHT22;54412;51.206;6.888;2024-03-25T07:36:45;8.30;99.90
5246;DHT22;54412;51.206;6.888;2024-03-25T07:39:10;8.30;99.90
5246;DHT22;54412;51.206;6.888;2024-03-25T07:41:37;8.40;99.90
5246;DHT22;54412;51.206;6.888;2024-03-25T07:44:03;8.50;99.90
5246;DHT22;54412;51.206;6.888;2024-03-25T07:46:30;8.80;99.90
5246;DHT22;54412;51.206;6.888;2024-03-25T07:48:56;8.90;99.90
5246;DHT22;54412;51.206;6.888;2024-03-25T07:51:21;9.20;99.90
5246;DHT22;54412;51.206;6.888;2024-03-25T07:53:47;9.50;99.90
5246;DHT22;54412;51.206;6.888;2024-03-25T07:56:15;9.30;99.90
5246;DHT22;54412;51.206;6.888;2024-03-25T07:58:41;9.20;99.90
5246;DHT22;54412;51.206;6.888;2024-03-25T08:01:07;9.10;99.90
5246;DHT22;54412;51.206;6.888;2024-03-25T08:03:32;9.20;99.90
5246;DHT22;54412;51.206;6.888;2024-03-25T08:05:59;9.30;99.90
5246;DHT22;54412;51.206;6.888;2024-03-25T08:08:25;9.30;99.90
5246;DHT22;54412;51.206;6.888;2024-03-25T08:10:50;9.50;99.90
5246;DHT22;54412;51.206;6.888;2024-03-25T08:13:18;9.60;99.90
5246;DHT22;54412;51.206;6.888;2024-03-25T08:15:45;9.70;99.90
5246;DHT22;54412;51.206;6.888;2024-03-25T08:18:11;9.80;99.90
5246;DHT22;54412;51.206;6.888;2024-03-25T08:20:37;9.90;99.90
5246;DHT22;54412;51.206;6.888;2024-03-25T08:23:03;10.00;99.90
5246;DHT22;54412;51.206;6.888;2024-03-25T08:25:30;10.10;99.90
5246;DHT22;54412;51.206;6.888;2024-03-25T08:27:57;10.10;99.90
5246;DHT22;54412;51.206;6.888;2024-03-25T08:30:23;9.90;99.90
5246;DHT22;54412;51.206;6.888;2024-03-25T08:32:49;10.00;99.90
5246;DHT22;54412;51.206;6.888;2024-03-25T08:35:15;10.10;99.90
5246;DHT22;54412;51.206;6.888;2024-03-25T08:37:41;9.70;99.90
5246;DHT22;54412;51.206;6.888;2024-03-25T08:40:07;9.40;99.90
5246;DHT22;54412;51.206;6.888;2024-03-25T08:42:34;9.20;99.90
5246;DHT22;54412;51.206;6.888;2024-03-25T08:45:00;9.20;99.90
5246;DHT22;54412;51.206;6.888;2024-03-25T08:47:26;9.30;99.90
5246;DHT22;54412;51.206;6.888;2024-03-25T08:49:52;9.70;99.90
5246;DHT22;54412;51.206;6.888;2024-03-25T08:52:17;9.60;99.90
5246;DHT22;54412;51.206;6.888;2024-03-25T08:54:43;9.80;99.90
5246;DHT22;54412;51.206;6.888;2024-03-25T08:57:09;9.80;99.90
5246;DHT22;54412;51.206;6.888;2024-03-25T08:59:35;9.70;99.90
5246;DHT22;54412;51.206;6.888;2024-03-25T09:02:01;10.00;99.90
5246;DHT22;54412;51.206;6.888;2024-03-25T09:04:26;10.40;99.90
5246;DHT22;54412;51.206;6.888;2024-03-25T09:06:52;10.60;99.90
5246;DHT22;54412;51.206;6.888;2024-03-25T09:09:18;10.90;99.90
5246;DHT22;54412;51.206;6.888;2024-03-25T09:12:02;11.00;99.90
5246;DHT22;54412;51.206;6.888;2024-03-25T09:14:28;11.00;99.90
5246;DHT22;54412;51.206;6.888;2024-03-25T09:16:54;11.10;99.90
5246;DHT22;54412;51.206;6.888;2024-03-25T09:19:19;11.30;99.90
5246;DHT22;54412;51.206;6.888;2024-03-25T09:21:45;11.40;99.90
5246;DHT22;54412;51.206;6.888;2024-03-25T09:24:11;11.30;99.90
5246;DHT22;54412;51.206;6.888;2024-03-25T09:26:36;10.90;99.90
5246;DHT22;54412;51.206;6.888;2024-03-25T09:29:02;10.70;99.90
5246;DHT22;54412;51.206;6.888;2024-03-25T09:31:28;11.10;99.90
5246;DHT22;54412;51.206;6.888;2024-03-25T09:33:54;11.30;99.90
5246;DHT22;54412;51.206;6.888;2024-03-25T09:36:19;11.10;99.90
5246;DHT22;54412;51.206;6.888;2024-03-25T09:38:45;11.40;99.90
5246;DHT22;54412;51.206;6.888;2024-03-25T09:41:11;11.10;99.90
5246;DHT22;54412;51.206;6.888;2024-03-25T09:43:43;10.70;99.90
5246;DHT22;54412;51.206;6.888;2024-03-25T09:46:11;10.60;99.90
5246;DHT22;54412;51.206;6.888;2024-03-25T09:48:37;10.80;99.90
5246;DHT22;54412;51.206;6.888;2024-03-25T09:51:04;11.10;99.90
5246;DHT22;54412;51.206;6.888;2024-03-25T09:53:30;10.90;99.90
5246;DHT22;54412;51.206;6.888;2024-03-25T09:55:56;10.80;99.90
5246;DHT22;54412;51.206;6.888;2024-03-25T09:58:24;11.40;99.90
5246;DHT22;54412;51.206;6.888;2024-03-25T10:00:51;11.50;99.90
5246;DHT22;54412;51.206;6.888;2024-03-25T10:03:16;11.70;99.90
5246;DHT22;54412;51.206;6.888;2024-03-25T10:05:42;11.40;99.90
5246;DHT22;54412;51.206;6.888;2024-03-25T10:08:08;11.20;99.90
5246;DHT22;54412;51.206;6.888;2024-03-25T10:10:35;11.10;99.90
5246;DHT22;54412;51.206;6.888;2024-03-25T10:13:03;11.60;99.90
5246;DHT22;54412;51.206;6.888;2024-03-25T10:15:30;12.10;99.90
5246;DHT22;54412;51.206;6.888;2024-03-25T10:17:56;11.60;99.90
5246;DHT22;54412;51.206;6.888;2024-03-25T10:20:22;11.40;99.90
5246;DHT22;54412;51.206;6.888;2024-03-25T10:22:48;11.20;99.90
5246;DHT22;54412;51.206;6.888;2024-03-25T10:25:42;11.20;99.90
5246;DHT22;54412;51.206;6.888;2024-03-25T10:28:08;11.60;99.90
5246;DHT22;54412;51.206;6.888;2024-03-25T10:30:34;11.90;99.90
5246;DHT22;54412;51.206;6.888;2024-03-25T10:33:04;12.40;99.90
5246;DHT22;54412;51.206;6.888;2024-03-25T10:35:34;12.70;99.90
5246;DHT22;54412;51.206;6.888;2024-03-25T10:38:03;12.50;99.90
5246;DHT22;54412;51.206;6.888;2024-03-25T10:40:40;12.90;99.90
5246;DHT22;54412;51.206;6.888;2024-03-25T10:43:08;12.50;99.90
5246;DHT22;54412;51.206;6.888;2024-03-25T10:45:39;12.40;99.90
5246;DHT22;54412;51.206;6.888;2024-03-25T10:48:09;12.70;99.90
5246;DHT22;54412;51.206;6.888;2024-03-25T10:50:41;13.30;99.90
5246;DHT22;54412;51.206;6.888;2024-03-25T10:53:10;13.70;99.90
5246;DHT22;54412;51.206;6.888;2024-03-25T10:55:40;13.90;99.90
5246;DHT22;54412;51.206;6.888;2024-03-25T10:58:07;14.00;99.90
5246;DHT22;54412;51.206;6.888;2024-03-25T11:00:34;14.20;99.90
5246;DHT22;54412;51.206;6.888;2024-03-25T11:03:01;13.70;99.90
5246;DHT22;54412;51.206;6.888;2024-03-25T11:05:28;13.80;99.90
5246;DHT22;54412;51.206;6.888;2024-03-25T11:07:54;13.80;99.90
5246;DHT22;54412;51.206;6.888;2024-03-25T11:10:29;14.10;99.90
5246;DHT22;54412;51.206;6.888;2024-03-25T11:12:55;14.80;99.90
5246;DHT22;54412;51.206;6.888;2024-03-25T11:15:21;14.90;99.90
5246;DHT22;54412;51.206;6.888;2024-03-25T11:17:50;15.40;99.90
5246;DHT22;54412;51.206;6.888;2024-03-25T11:20:16;14.60;99.90
5246;DHT22;54412;51.206;6.888;2024-03-25T11:22:52;14.50;99.90
5246;DHT22;54412;51.206;6.888;2024-03-25T11:25:20;14.70;99.90
5246;DHT22;54412;51.206;6.888;2024-03-25T11:27:47;13.60;99.90
5246;DHT22;54412;51.206;6.888;2024-03-25T11:30:14;13.60;99.90
5246;DHT22;54412;51.206;6.888;2024-03-25T11:32:50;14.30;99.90
5246;DHT22;54412;51.206;6.888;2024-03-25T11:35:17;14.60;99.90
5246;DHT22;54412;51.206;6.888;2024-03-25T11:37:44;14.70;99.90
5246;DHT22;54412;51.206;6.888;2024-03-25T11:40:11;15.40;99.90
5246;DHT22;54412;51.206;6.888;2024-03-25T11:42:40;15.80;99.90
5246;DHT22;54412;51.206;6.888;2024-03-25T11:45:07;15.10;99.90
5246;DHT22;54412;51.206;6.888;2024-03-25T11:47:40;13.90;99.90
5246;DHT22;54412;51.206;6.888;2024-03-25T11:50:08;13.40;99.90
5246;DHT22;54412;51.206;6.888;2024-03-25T11:52:34;13.40;99.90
5246;DHT22;54412;51.206;6.888;2024-03-25T11:55:00;13.70;99.90
5246;DHT22;54412;51.206;6.888;2024-03-25T11:57:27;14.10;99.90
5246;DHT22;54412;51.206;6.888;2024-03-25T11:59:53;14.30;99.90
5246;DHT22;54412;51.206;6.888;2024-03-25T12:02:19;14.90;99.90
5246;DHT22;54412;51.206;6.888;2024-03-25T12:04:45;15.60;99.90
5246;DHT22;54412;51.206;6.888;2024-03-25T12:07:14;15.30;99.90
5246;DHT22;54412;51.206;6.888;2024-03-25T12:09:40;14.20;99.90
5246;DHT22;54412;51.206;6.888;2024-03-25T12:12:25;13.40;99.90
5246;DHT22;54412;51.206;6.888;2024-03-25T12:14:52;13.60;99.90
5246;DHT22;54412;51.206;6.888;2024-03-25T12:17:19;13.30;99.90
5246;DHT22;54412;51.206;6.888;2024-03-25T12:19:58;13.30;99.90
5246;DHT22;54412;51.206;6.888;2024-03-25T12:22:26;13.00;99.90
5246;DHT22;54412;51.206;6.888;2024-03-25T12:24:52;13.30;99.90
5246;DHT22;54412;51.206;6.888;2024-03-25T12:27:18;13.20;99.90
5246;DHT22;54412;51.206;6.888;2024-03-25T12:29:43;14.00;99.90
5246;DHT22;54412;51.206;6.888;2024-03-25T12:32:12;14.50;99.90
5246;DHT22;54412;51.206;6.888;2024-03-25T12:34:38;15.40;99.90
5246;DHT22;54412;51.206;6.888;2024-03-25T12:37:04;15.80;99.90
5246;DHT22;54412;51.206;6.888;2024-03-25T12:39:30;15.70;99.90
5246;DHT22;54412;51.206;6.888;2024-03-25T12:41:56;14.70;99.90
5246;DHT22;54412;51.206;6.888;2024-03-25T12:44:21;13.70;99.90
5246;DHT22;54412;51.206;6.888;2024-03-25T12:46:47;13.10;99.90
5246;DHT22;54412;51.206;6.888;2024-03-25T12:49:13;12.90;99.90
5246;DHT22;54412;51.206;6.888;2024-03-25T12:51:38;13.50;99.90
5246;DHT22;54412;51.206;6.888;2024-03-25T12:54:04;15.00;99.90
5246;DHT22;54412;51.206;6.888;2024-03-25T12:56:30;15.40;99.90
5246;DHT22;54412;51.206;6.888;2024-03-25T12:58:55;15.70;99.90
5246;DHT22;54412;51.206;6.888;2024-03-25T13:01:21;15.60;99.90
5246;DHT22;54412;51.206;6.888;2024-03-25T13:03:47;16.60;99.90
5246;DHT22;54412;51.206;6.888;2024-03-25T13:06:13;16.70;99.90
5246;DHT22;54412;51.206;6.888;2024-03-25T13:08:38;16.40;99.90
5246;DHT22;54412;51.206;6.888;2024-03-25T13:11:04;16.00;99.90
5246;DHT22;54412;51.206;6.888;2024-03-25T13:13:29;16.00;99.90
5246;DHT22;54412;51.206;6.888;2024-03-25T13:15:55;15.50;99.90
5246;DHT22;54412;51.206;6.888;2024-03-25T13:18:21;15.10;99.70
5246;DHT22;54412;51.206;6.888;2024-03-25T13:20:46;15.70;99.90
5246;DHT22;54412;51.206;6.888;2024-03-25T13:23:12;16.00;99.90
5246;DHT22;54412;51.206;6.888;2024-03-25T13:25:38;16.40;99.30
5246;DHT22;54412;51.206;6.888;2024-03-25T13:28:04;16.40;97.80
5246;DHT22;54412;51.206;6.888;2024-03-25T13:30:31;16.20;96.20
5246;DHT22;54412;51.206;6.888;2024-03-25T13:32:58;15.70;94.30
5246;DHT22;54412;51.206;6.888;2024-03-25T13:35:24;15.10;96.20
5246;DHT22;54412;51.206;6.888;2024-03-25T13:37:49;15.60;96.60
5246;DHT22;54412;51.206;6.888;2024-03-25T13:40:15;16.20;95.30
5246;DHT22;54412;51.206;6.888;2024-03-25T13:42:41;16.30;94.70
5246;DHT22;54412;51.206;6.888;2024-03-25T13:45:06;16.30;94.30
5246;DHT22;54412;51.206;6.888;2024-03-25T13:47:32;15.90;93.30
5246;DHT22;54412;51.206;6.888;2024-03-25T13:50:05;15.80;92.90
5246;DHT22;54412;51.206;6.888;2024-03-25T13:52:35;15.60;94.10
5246;DHT22;54412;51.206;6.888;2024-03-25T13:55:03;15.90;94.20
5246;DHT22;54412;51.206;6.888;2024-03-25T13:57:30;16.20;93.00
5246;DHT22;54412;51.206;6.888;2024-03-25T13:59:55;15.90;92.50
5246;DHT22;54412;51.206;6.888;2024-03-25T14:02:22;16.00;91.80
5246;DHT22;54412;51.206;6.888;2024-03-25T14:04:49;16.00;90.30
5246;DHT22;54412;51.206;6.888;2024-03-25T14:07:14;15.90;89.90
5246;DHT22;54412;51.206;6.888;2024-03-25T14:09:40;16.30;88.80
5246;DHT22;54412;51.206;6.888;2024-03-25T14:12:06;16.40;91.20
5246;DHT22;54412;51.206;6.888;2024-03-25T14:14:31;16.20;91.60
5246;DHT22;54412;51.206;6.888;2024-03-25T14:16:57;15.20;91.20
5246;DHT22;54412;51.206;6.888;2024-03-25T14:19:23;15.40;91.40
5246;DHT22;54412;51.206;6.888;2024-03-25T14:21:50;15.40;92.30
5246;DHT22;54412;51.206;6.888;2024-03-25T14:24:16;15.40;91.10
5246;DHT22;54412;51.206;6.888;2024-03-25T14:26:41;15.50;91.50
5246;DHT22;54412;51.206;6.888;2024-03-25T14:29:07;15.70;92.10
5246;DHT22;54412;51.206;6.888;2024-03-25T14:31:33;16.00;91.90
5246;DHT22;54412;51.206;6.888;2024-03-25T14:33:59;16.30;92.80
5246;DHT22;54412;51.206;6.888;2024-03-25T14:36:24;17.10;92.60
5246;DHT22;54412;51.206;6.888;2024-03-25T14:38:50;16.80;88.20
5246;DHT22;54412;51.206;6.888;2024-03-25T14:41:20;16.10;90.00
5246;DHT22;54412;51.206;6.888;2024-03-25T14:43:46;15.80;90.80
5246;DHT22;54412;51.206;6.888;2024-03-25T14:46:14;15.20;91.20
5246;DHT22;54412;51.206;6.888;2024-03-25T14:48:39;15.10;90.90
5246;DHT22;54412;51.206;6.888;2024-03-25T14:51:05;15.10;91.90
5246;DHT22;54412;51.206;6.888;2024-03-25T14:53:31;15.40;91.30
5246;DHT22;54412;51.206;6.888;2024-03-25T14:55:56;15.90;91.20
5246;DHT22;54412;51.206;6.888;2024-03-25T14:58:22;15.90;91.30
5246;DHT22;54412;51.206;6.888;2024-03-25T15:00:48;15.20;91.10
5246;DHT22;54412;51.206;6.888;2024-03-25T15:03:13;14.90;91.00
5246;DHT22;54412;51.206;6.888;2024-03-25T15:05:39;14.70;92.10
5246;DHT22;54412;51.206;6.888;2024-03-25T15:08:05;14.70;93.00
5246;DHT22;54412;51.206;6.888;2024-03-25T15:10:34;14.80;92.80
5246;DHT22;54412;51.206;6.888;2024-03-25T15:13:00;14.70;92.20
5246;DHT22;54412;51.206;6.888;2024-03-25T15:15:26;14.00;91.40
5246;DHT22;54412;51.206;6.888;2024-03-25T15:17:52;14.10;93.10
5246;DHT22;54412;51.206;6.888;2024-03-25T15:20:17;14.20;91.10
5246;DHT22;54412;51.206;6.888;2024-03-25T15:22:43;14.30;91.00
5246;DHT22;54412;51.206;6.888;2024-03-25T15:25:09;13.90;90.70
5246;DHT22;54412;51.206;6.888;2024-03-25T15:27:36;13.70;88.50
5246;DHT22;54412;51.206;6.888;2024-03-25T15:30:06;13.70;88.70
5246;DHT22;54412;51.206;6.888;2024-03-25T15:32:32;13.70;90.00
5246;DHT22;54412;51.206;6.888;2024-03-25T15:34:58;13.60;89.70
5246;DHT22;54412;51.206;6.888;2024-03-25T15:37:24;13.70;90.40
5246;DHT22;54412;51.206;6.888;2024-03-25T15:39:50;13.70;90.10
5246;DHT22;54412;51.206;6.888;2024-03-25T15:42:15;13.60;90.40
5246;DHT22;54412;51.206;6.888;2024-03-25T15:44:42;13.70;90.70
5246;DHT22;54412;51.206;6.888;2024-03-25T15:47:08;13.90;91.20
5246;DHT22;54412;51.206;6.888;2024-03-25T15:49:33;13.70;90.10
5246;DHT22;54412;51.206;6.888;2024-03-25T15:51:59;13.70;90.10
5246;DHT22;54412;51.206;6.888;2024-03-25T15:54:25;13.70;90.10